Flight Track Log - Related Links

Times and Time Zones

All times are in EDT time to prevent confusion due to time zone crossing. See the EJA996 flight status page for this flight to view local times or setup timezone preferences in your user account.

Time Position Orientation Groundspeed Altitude Reporting Facility
EDT Latitude Longitude Course Direction KTS MPH feet Rate Location/Type
Wed 01:10:13 PM 33.5639 -86.7561 54° Northeast 175 201 1,200  Level Atlanta Center
Wed 01:10:55 PM 33.5878 -86.7169 54° Northeast 222 255 3,000 3,515 Climbing Atlanta Center
Wed 01:11:52 PM 33.6308 -86.6486 53° Northeast 266 306 7,000 3,846 Climbing Atlanta Center
Wed 01:12:52 PM 33.6783 -86.5725 53° Northeast 278 320 10,500 3,000 Climbing Atlanta Center
Wed 01:13:52 PM 33.7325 -86.4817 54° Northeast 304 350 13,000 2,700 Climbing Atlanta Center
Wed 01:14:52 PM 33.7950 -86.3836 52° Northeast 342 394 15,900 1,950 Climbing Atlanta Center
Wed 01:15:52 PM 33.8617 -86.2753 53° Northeast 363 418 16,900 -300 Climbing Atlanta Center
Wed 01:16:52 PM 33.8992 -86.1536 70° East 384 442 15,300 -1,650 Descending Atlanta Center
Wed 01:17:52 PM 33.9286 -86.0217 75° East 389 448 13,600 -1,850 Descending Atlanta Center
Wed 01:18:52 PM 33.9578 -85.8947 74° East 389 448 11,600 -1,300 Descending Atlanta Center
Wed 01:19:52 PM 33.9742 -85.7697 81° East 389 448 11,000 -300 Descending Atlanta Center
Wed 01:20:52 PM 33.9739 -85.6394 90° East 383 441 11,000 -250 Level Atlanta Center
Wed 01:21:52 PM 33.9692 -85.5192 93° East 378 435 10,500 -600 Descending Atlanta Center
Wed 01:22:52 PM 33.9661 -85.4239 92° East 331 381 9,800 -750 Descending Atlanta Center
Wed 01:23:52 PM 33.9650 -85.3336 91° East 276 318 9,000 -850 Descending Atlanta Center
Wed 01:24:52 PM 33.9636 -85.2411 91° East 270 311 8,100 -500 Descending Atlanta Center
Wed 01:25:52 PM 33.9603 -85.1533 93° East 270 311 8,000 -50 Descending Atlanta Center
Wed 01:26:52 PM 33.9592 -85.0606 91° East 270 311 8,000 -300 Level Atlanta Center
Wed 01:27:52 PM 33.9639 -84.9831 86° East 265 305 7,400 -750 Descending Atlanta Center
Wed 01:28:52 PM 33.9686 -84.9081 86° East 246 283 6,500 -800 Descending Atlanta Center
Wed 01:29:52 PM 33.9775 -84.8403 81° East 213 245 5,800 -750 Descending Atlanta Center
Wed 01:30:52 PM 33.9819 -84.7753 85° East 195 224 5,000 -450 Descending Atlanta Center
Wed 01:31:52 PM 33.9886 -84.7103 83° East 195 224 4,900  Descending Atlanta Center
Wed 01:34:07 PM 34.0000 -84.5500 85° East 194 223 5,000 31 Climbing Atlanta TRACON
Wed 01:35:07 PM 34.0167 -84.4833 73° East 206 237 5,000  Level Atlanta TRACON
Wed 01:36:01 PM 34.0167 -84.4333 90° East 193 222 5,000  Level Atlanta TRACON
Wed 01:37:01 PM 34.0167 -84.3667 90° East 190 219 5,000 -286 Level Atlanta TRACON
Wed 01:38:07 PM 34.0167 -84.3000 90° East 194 223 4,400 -500 Descending Atlanta TRACON
Wed 01:39:01 PM 33.9833 -84.2667 140° Southeast 180 207 4,000 -250 Descending Atlanta TRACON
Wed 01:40:07 PM 33.9500 -84.2167 129° Southeast 187 215 3,900 -381 Descending Atlanta TRACON
Wed 01:41:07 PM 33.9000 -84.2167 180° South 196 226 3,200 -550 Descending Atlanta TRACON
Wed 01:42:07 PM 33.8333 -84.2167 180° South 208 239 2,800 -600 Descending Atlanta TRACON
Wed 01:43:07 PM 33.8333 -84.2833 270° West 181 208 2,000 -800 Descending Atlanta TRACON
Wed 01:45:00 PM 33.8667 -84.3000 296° West  Level FlightAware Approximate
Wed 01:52:00 PM 33.8756 -84.3020 296° West  Level Estimated

Login

Don't have an account? Register now (free) for customized features, flight alerts, and more!